Time;durP1;ratioP1;P1;durP2;ratioP2;P2;SDS_P1;SDS_P2;PMS_P1;PMS_P2;Temp;Humidity;BMP_temperature;BMP_pressure;BME280_temperature;BME280_humidity;BME280_pressure;Samples;Min_cycle;Max_cycle;Signal;HPM_P1;HPM_P2
2022/05/24 00:01:39;;;;;;;2.27;2.07;;;23.00;70.40;;;;;;4937399;29;20534;-69
2022/05/24 00:04:10;;;;;;;2.37;1.80;;;23.10;72.10;;;;;;4934265;29;20506;-69
2022/05/24 00:06:41;;;;;;;2.57;2.37;;;23.10;71.50;;;;;;4937293;29;20942;-68
2022/05/24 00:09:12;;;;;;;2.27;2.07;;;23.10;69.90;;;;;;4936381;29;20462;-67
2022/05/24 00:11:42;;;;;;;2.40;2.20;;;23.10;70.50;;;;;;4941299;29;20474;-68
2022/05/24 00:14:13;;;;;;;2.23;2.00;;;22.90;70.50;;;;;;4938563;29;20479;-69
2022/05/24 00:16:46;;;;;;;3.03;2.23;;;22.70;70.60;;;;;;4940131;29;20866;-69
2022/05/24 00:19:19;;;;;;;1.90;1.80;;;22.60;71.40;;;;;;4936935;29;20480;-69
2022/05/24 00:21:51;;;;;;;2.97;2.13;;;22.50;71.70;;;;;;4934694;29;20504;-69
2022/05/24 00:24:22;;;;;;;1.97;1.87;;;22.40;74.60;;;;;;4941333;29;21028;-69
2022/05/24 00:26:53;;;;;;;1.80;1.70;;;22.40;75.60;;;;;;4942175;29;20469;-69
2022/05/24 00:29:24;;;;;;;2.90;2.50;;;22.40;74.80;;;;;;4942545;29;20493;-68
2022/05/24 00:31:57;;;;;;;1.73;1.53;;;22.30;75.70;;;;;;4941009;29;20479;-71
2022/05/24 00:34:28;;;;;;;2.43;2.23;;;22.00;75.10;;;;;;4943831;29;20465;-69
2022/05/24 00:36:58;;;;;;;4.97;2.27;;;21.90;76.80;;;;;;4943517;29;20468;-70
2022/05/24 00:39:30;;;;;;;2.10;2.00;;;21.90;78.10;;;;;;4945416;29;20454;-69
2022/05/24 00:42:05;;;;;;;2.73;2.43;;;22.00;76.80;;;;;;4943864;29;20485;-70
2022/05/24 00:44:40;;;;;;;3.30;2.17;;;21.80;77.70;;;;;;4938682;29;20501;-71
2022/05/24 00:47:15;;;;;;;1.80;1.70;;;21.70;79.50;;;;;;4940890;29;20566;-71
2022/05/24 00:49:49;;;;;;;2.63;1.80;;;21.70;78.50;;;;;;4937401;29;20568;-71
2022/05/24 00:52:24;;;;;;;1.47;1.37;;;21.70;78.20;;;;;;4928860;29;20464;-71
2022/05/24 00:55:01;;;;;;;1.67;1.50;;;21.60;78.70;;;;;;4942446;29;20453;-71
2022/05/24 00:57:34;;;;;;;2.00;1.50;;;21.50;78.50;;;;;;4942306;29;20565;-69
2022/05/24 01:00:10;;;;;;;1.63;1.53;;;21.40;80.00;;;;;;4940465;29;20455;-72
2022/05/24 01:02:43;;;;;;;1.87;1.50;;;21.40;81.20;;;;;;4936836;29;20479;-72
2022/05/24 01:05:17;;;;;;;2.93;1.33;;;21.30;80.60;;;;;;4938667;29;20499;-71
2022/05/24 01:07:48;;;;;;;2.37;1.60;;;21.10;80.70;;;;;;4940674;29;20461;-71
2022/05/24 01:10:23;;;;;;;1.50;1.20;;;21.00;81.80;;;;;;4933265;29;20417;-64
2022/05/24 01:12:58;;;;;;;1.37;1.27;;;20.90;82.50;;;;;;4941924;29;20505;-70
2022/05/24 01:15:29;;;;;;;2.73;1.47;;;20.90;82.60;;;;;;4929283;29;20443;-67
2022/05/24 01:18:02;;;;;;;2.17;1.50;;;20.70;83.30;;;;;;4946832;29;20432;-69
2022/05/24 01:20:33;;;;;;;4.30;1.13;;;20.50;82.50;;;;;;4947076;29;20450;-68
2022/05/24 01:23:41;;;;;;;0.87;0.80;;;20.20;82.70;;;;;;4938684;29;20493;-69
2022/05/24 01:26:18;;;;;;;1.03;1.03;;;19.80;84.20;;;;;;4904080;29;20471;-68
2022/05/24 01:28:54;;;;;;;1.30;1.10;;;19.60;85.80;;;;;;4890542;29;20453;-68
2022/05/24 01:36:09;;;;;;;1.13;1.03;;;19.60;86.80;;;;;;4907200;29;20532;-68
2022/05/24 01:37:08;;;;;;;0.80;0.80;;;19.50;86.60;;;;;;4893589;29;20443;-66
2022/05/24 01:39:40;;;;;;;1.00;1.00;;;19.30;87.90;;;;;;4900731;29;20459;-67
2022/05/24 01:42:11;;;;;;;1.30;1.20;;;19.30;88.40;;;;;;4904927;29;20482;-67
2022/05/24 01:44:49;;;;;;;1.70;0.93;;;19.10;87.80;;;;;;4897234;29;20488;-66
2022/05/24 01:47:22;;;;;;;1.47;1.20;;;19.00;88.80;;;;;;4905334;29;20455;-68
2022/05/24 01:49:58;;;;;;;3.47;0.80;;;18.90;89.30;;;;;;4906953;29;20463;-67
2022/05/24 01:52:34;;;;;;;1.57;1.20;;;18.80;89.80;;;;;;4894903;29;20563;-68
2022/05/24 01:55:09;;;;;;;1.17;0.73;;;18.70;90.00;;;;;;4880626;29;20863;-68
2022/05/24 01:57:44;;;;;;;1.73;1.17;;;18.70;90.10;;;;;;4924815;29;20449;-71
2022/05/24 02:00:17;;;;;;;4.50;1.13;;;18.60;90.80;;;;;;4932934;29;20568;-72
2022/05/24 02:02:49;;;;;;;2.40;0.87;;;18.70;91.60;;;;;;4931242;29;20475;-72
2022/05/24 02:05:32;;;;;;;0.90;0.90;;;18.80;91.40;;;;;;4942928;29;20568;-70
2022/05/24 02:08:07;;;;;;;1.40;1.10;;;18.70;91.00;;;;;;4938871;29;20507;-71
2022/05/24 02:10:41;;;;;;;1.10;1.00;;;18.50;91.80;;;;;;4928116;29;20462;-68
2022/05/24 02:13:15;;;;;;;0.80;0.80;;;18.30;92.00;;;;;;4929529;29;20433;-72
2022/05/24 02:15:50;;;;;;;1.00;1.00;;;18.30;92.50;;;;;;4937617;29;20492;-70
2022/05/24 02:18:24;;;;;;;1.33;0.80;;;18.20;93.00;;;;;;4945198;29;20473;-71
2022/05/24 02:20:55;;;;;;;3.97;0.90;;;18.20;92.80;;;;;;4942582;29;20463;-70
2022/05/24 02:23:26;;;;;;;2.13;1.00;;;18.10;92.70;;;;;;4940303;29;20843;-71
2022/05/24 02:25:59;;;;;;;0.90;0.90;;;18.00;93.30;;;;;;4936891;29;20465;-70
2022/05/24 02:28:32;;;;;;;3.20;1.20;;;17.90;94.00;;;;;;4946634;29;20453;-70
2022/05/24 02:31:07;;;;;;;1.03;1.00;;;17.90;94.10;;;;;;4930109;29;20503;-71
2022/05/24 02:33:38;;;;;;;1.10;1.00;;;17.80;94.30;;;;;;4928106;29;20466;-69
2022/05/24 02:36:10;;;;;;;1.93;1.07;;;17.70;94.30;;;;;;4944490;29;20456;-70
2022/05/24 02:38:41;;;;;;;1.33;0.90;;;17.60;94.70;;;;;;4940722;29;21120;-70
2022/05/24 02:44:03;;;;;;;0.90;0.83;;;17.40;95.40;;;;;;4939288;29;20472;-71
2022/05/24 02:46:38;;;;;;;1.10;1.00;;;17.30;96.10;;;;;;4934129;29;20478;-71
2022/05/24 02:49:09;;;;;;;0.90;0.90;;;17.30;96.30;;;;;;4929144;29;20469;-70
2022/05/24 02:51:41;;;;;;;0.90;0.90;;;17.20;96.40;;;;;;4927847;29;20455;-70
2022/05/24 02:54:11;;;;;;;1.30;1.08;;;17.10;96.90;;;;;;4944118;29;20471;-69
2022/05/24 02:56:43;;;;;;;1.80;0.90;;;17.10;97.30;;;;;;4927188;29;20421;-70
2022/05/24 02:59:13;;;;;;;1.73;1.10;;;17.00;97.30;;;;;;4933550;29;20481;-69
2022/05/24 03:01:46;;;;;;;1.20;1.10;;;16.90;97.70;;;;;;4931019;29;20455;-69
2022/05/24 03:04:18;;;;;;;1.30;0.90;;;16.80;98.00;;;;;;4943072;29;20510;-68
2022/05/24 03:09:37;;;;;;;1.63;1.10;;;16.60;99.00;;;;;;4943309;29;20476;-68
2022/05/24 03:14:58;;;;;;;0.87;0.87;;;16.50;99.90;;;;;;4940714;29;20499;-68
2022/05/24 03:17:31;;;;;;;0.60;0.60;;;16.50;99.90;;;;;;4942184;29;20489;-68
2022/05/24 03:20:02;;;;;;;0.73;0.70;;;16.40;99.90;;;;;;4937929;29;20462;-67
2022/05/24 03:22:33;;;;;;;0.80;0.80;;;16.30;99.90;;;;;;4932065;29;20494;-68
2022/05/24 03:25:04;;;;;;;1.60;0.90;;;16.30;99.90;;;;;;4933942;29;20501;-68
2022/05/24 03:27:35;;;;;;;0.70;0.70;;;16.20;99.90;;;;;;4940361;29;20438;-68
2022/05/24 03:30:08;;;;;;;0.63;0.63;;;16.20;99.90;;;;;;4945150;29;20457;-68
2022/05/24 03:32:41;;;;;;;1.10;0.77;;;16.10;99.90;;;;;;4943217;29;20450;-67
2022/05/24 03:35:13;;;;;;;1.00;0.70;;;16.00;99.90;;;;;;4935604;29;20458;-67
2022/05/24 03:37:44;;;;;;;1.10;0.70;;;16.00;99.90;;;;;;4934869;29;20813;-68
2022/05/24 03:40:15;;;;;;;1.87;1.00;;;15.90;99.90;;;;;;4940630;29;21592;-67
2022/05/24 03:42:51;;;;;;;1.67;1.10;;;15.90;99.90;;;;;;4942450;29;20462;-67
2022/05/24 03:45:23;;;;;;;0.97;0.70;;;15.80;99.90;;;;;;4929110;29;20545;-67
2022/05/24 03:47:56;;;;;;;1.57;0.87;;;15.70;99.90;;;;;;4937756;29;20436;-67
2022/05/24 03:50:27;;;;;;;1.13;1.03;;;15.50;99.90;;;;;;4935591;29;20553;-69
2022/05/24 03:52:57;;;;;;;0.90;0.80;;;15.50;99.90;;;;;;4939188;29;20508;-67
2022/05/24 03:55:28;;;;;;;0.90;0.90;;;15.40;99.90;;;;;;4943005;29;20453;-69
2022/05/24 03:58:02;;;;;;;1.70;0.90;;;15.30;99.90;;;;;;4927226;29;20459;-68
2022/05/24 04:00:36;;;;;;;1.37;1.27;;;15.20;99.90;;;;;;4937437;29;20591;-68
2022/05/24 04:03:09;;;;;;;0.80;0.80;;;15.20;99.90;;;;;;4931424;29;20522;-67
2022/05/24 04:05:46;;;;;;;4.50;1.30;;;15.10;99.90;;;;;;4932254;29;20552;-68
2022/05/24 04:08:19;;;;;;;1.10;0.80;;;15.10;99.90;;;;;;4942417;29;20602;-68
2022/05/24 04:10:50;;;;;;;0.97;0.90;;;15.00;99.90;;;;;;4943774;29;20477;-68
2022/05/24 04:13:20;;;;;;;0.90;0.90;;;14.90;99.90;;;;;;4940185;29;20476;-68
2022/05/24 04:15:52;;;;;;;0.90;0.90;;;14.90;99.90;;;;;;4942769;29;20458;-68
2022/05/24 04:18:24;;;;;;;0.70;0.60;;;14.80;99.90;;;;;;4945118;29;20474;-68
2022/05/24 04:20:55;;;;;;;1.23;1.20;;;14.80;99.90;;;;;;4929948;29;20462;-68
2022/05/24 04:23:27;;;;;;;0.90;0.80;;;14.70;99.90;;;;;;4934843;29;20472;-68
2022/05/24 04:25:57;;;;;;;0.83;0.73;;;14.70;99.90;;;;;;4940246;29;20540;-69
2022/05/24 04:28:28;;;;;;;0.90;0.90;;;14.60;99.90;;;;;;4935455;29;20453;-68
2022/05/24 04:31:04;;;;;;;0.97;0.90;;;14.50;99.90;;;;;;4937308;29;20529;-67
2022/05/24 04:33:36;;;;;;;1.53;0.93;;;14.50;99.90;;;;;;4936175;29;20552;-66
2022/05/24 04:36:07;;;;;;;0.80;0.80;;;14.40;99.90;;;;;;4939383;29;20481;-67
2022/05/24 04:38:38;;;;;;;1.33;0.83;;;14.40;99.90;;;;;;4940959;29;20466;-67
2022/05/24 04:43:58;;;;;;;0.93;0.90;;;14.30;99.90;;;;;;4927718;29;20457;-67
2022/05/24 04:47:06;;;;;;;0.90;0.80;;;14.30;99.90;;;;;;4943532;29;20485;-66
2022/05/24 04:49:24;;;;;;;1.30;1.00;;;14.20;99.90;;;;;;4938611;29;20496;-65
2022/05/24 04:51:55;;;;;;;0.90;0.90;;;14.20;99.90;;;;;;4943414;29;20471;-65
2022/05/24 04:54:29;;;;;;;0.63;0.63;;;14.10;99.90;;;;;;4943838;29;20469;-65
2022/05/24 04:57:00;;;;;;;1.27;0.87;;;14.10;99.90;;;;;;4929692;29;20459;-66
2022/05/24 04:59:31;;;;;;;0.90;0.80;;;14.10;99.90;;;;;;4946782;29;20869;-66
2022/05/24 05:02:02;;;;;;;0.70;0.70;;;14.00;99.90;;;;;;4946557;29;20466;-65
2022/05/24 05:04:35;;;;;;;3.63;1.37;;;14.00;99.90;;;;;;4946470;29;20549;-67
2022/05/24 05:07:07;;;;;;;1.00;0.90;;;13.90;99.90;;;;;;4941231;29;20484;-66
2022/05/24 05:09:39;;;;;;;1.00;1.00;;;13.90;99.90;;;;;;4942422;29;20470;-66
2022/05/24 05:12:12;;;;;;;1.43;0.90;;;13.90;99.90;;;;;;4931937;29;20467;-66
2022/05/24 05:14:43;;;;;;;0.80;0.80;;;13.90;99.90;;;;;;4935573;29;20466;-66
2022/05/24 05:17:18;;;;;;;0.90;0.90;;;13.90;99.90;;;;;;4935050;29;20493;-65
2022/05/24 05:19:51;;;;;;;1.20;1.10;;;13.90;99.90;;;;;;4942004;29;20468;-66
2022/05/24 05:22:24;;;;;;;1.23;1.13;;;13.80;99.90;;;;;;4940716;29;20471;-67
2022/05/24 05:24:55;;;;;;;1.30;1.10;;;13.80;99.90;;;;;;4931162;29;20465;-65
2022/05/24 05:27:26;;;;;;;1.40;1.10;;;13.70;99.90;;;;;;4937708;29;20982;-65
2022/05/24 05:32:45;;;;;;;2.03;0.97;;;13.70;99.90;;;;;;4941432;29;20805;-65
2022/05/24 05:35:17;;;;;;;1.10;1.00;;;13.60;99.90;;;;;;4940889;29;20481;-65
2022/05/24 05:37:48;;;;;;;1.27;1.17;;;13.60;99.90;;;;;;4947475;29;20462;-65
2022/05/24 05:40:19;;;;;;;1.33;1.23;;;13.60;99.90;;;;;;4945349;29;20468;-65
2022/05/24 05:42:50;;;;;;;1.30;1.20;;;13.50;99.90;;;;;;4941986;29;20473;-65
2022/05/24 05:45:21;;;;;;;1.17;1.13;;;13.50;99.90;;;;;;4945096;29;20541;-65
2022/05/24 05:47:53;;;;;;;1.53;1.10;;;13.50;99.90;;;;;;4932827;29;20904;-66
2022/05/24 05:50:25;;;;;;;1.40;1.10;;;13.50;99.90;;;;;;4938064;29;20800;-65
2022/05/24 05:52:56;;;;;;;1.30;1.20;;;13.40;99.90;;;;;;4934000;29;20509;-65
2022/05/24 05:55:28;;;;;;;1.20;1.10;;;13.40;99.90;;;;;;4943602;29;20522;-66
2022/05/24 05:57:58;;;;;;;0.97;0.87;;;13.40;99.90;;;;;;4934583;29;20824;-65
2022/05/24 06:00:29;;;;;;;1.17;1.10;;;13.30;99.90;;;;;;4937590;29;20462;-66
2022/05/24 06:03:01;;;;;;;0.80;0.80;;;13.30;99.90;;;;;;4929383;29;20455;-67
2022/05/24 06:05:35;;;;;;;1.27;1.03;;;13.30;99.90;;;;;;4932950;29;20993;-66
2022/05/24 06:08:08;;;;;;;1.27;1.17;;;13.30;99.90;;;;;;4943808;29;20465;-66
2022/05/24 06:10:39;;;;;;;1.23;1.13;;;13.20;99.90;;;;;;4932690;29;20835;-66
2022/05/24 06:13:10;;;;;;;1.40;1.03;;;13.10;99.90;;;;;;4937523;29;20481;-66
2022/05/24 06:15:42;;;;;;;1.37;1.10;;;13.10;99.90;;;;;;4935081;29;20458;-66
2022/05/24 06:18:13;;;;;;;1.20;1.07;;;13.00;99.90;;;;;;4937555;29;20465;-65
2022/05/24 06:20:45;;;;;;;1.47;1.37;;;13.00;99.90;;;;;;4943822;29;20449;-66
2022/05/24 06:23:17;;;;;;;0.83;0.83;;;13.00;99.90;;;;;;4942610;29;20486;-66
2022/05/24 06:25:48;;;;;;;1.40;1.30;;;13.10;99.90;;;;;;4936310;29;20497;-66
2022/05/24 06:28:19;;;;;;;1.33;1.23;;;13.00;99.90;;;;;;4936264;29;20473;-66
2022/05/24 06:30:50;;;;;;;1.50;1.40;;;12.90;99.90;;;;;;4945665;29;20475;-66
2022/05/24 06:33:21;;;;;;;1.23;1.13;;;12.90;99.90;;;;;;4930731;29;20472;-66
2022/05/24 06:35:54;;;;;;;1.53;1.17;;;12.90;99.90;;;;;;4942140;29;20928;-66
2022/05/24 06:38:25;;;;;;;1.90;1.50;;;12.80;99.90;;;;;;4942610;29;20470;-66
2022/05/24 06:40:56;;;;;;;2.00;1.30;;;12.80;99.90;;;;;;4944071;29;20592;-66
2022/05/24 06:43:26;;;;;;;1.40;1.30;;;12.70;99.90;;;;;;4943057;29;20465;-66
2022/05/24 06:45:57;;;;;;;1.87;1.50;;;12.80;99.90;;;;;;4940013;29;20504;-66
2022/05/24 06:48:29;;;;;;;1.77;1.37;;;12.80;99.90;;;;;;4936915;29;20468;-66
2022/05/24 06:51:02;;;;;;;1.50;1.37;;;12.70;99.90;;;;;;4943914;29;20823;-66
2022/05/24 06:53:32;;;;;;;1.17;1.07;;;12.70;99.90;;;;;;4938427;29;20474;-66
2022/05/24 06:56:03;;;;;;;1.40;1.30;;;12.60;99.90;;;;;;4935440;29;20482;-67
2022/05/24 06:58:35;;;;;;;1.60;1.50;;;12.50;99.90;;;;;;4944435;29;20950;-67
2022/05/24 07:03:53;;;;;;;1.60;1.50;;;12.50;99.90;;;;;;4945646;29;20489;-66
2022/05/24 07:06:26;;;;;;;1.97;1.40;;;12.40;99.90;;;;;;4941338;29;20513;-66
2022/05/24 07:08:57;;;;;;;1.63;1.53;;;12.40;99.90;;;;;;4944276;29;20473;-67
2022/05/24 07:11:27;;;;;;;1.43;1.33;;;12.40;99.90;;;;;;4938215;29;20472;-66
2022/05/24 07:13:59;;;;;;;2.10;1.60;;;12.50;99.90;;;;;;4939879;29;20561;-67
2022/05/24 07:16:29;;;;;;;1.70;1.60;;;12.40;99.90;;;;;;4942549;29;20478;-66
2022/05/24 07:19:01;;;;;;;1.70;1.60;;;12.30;99.90;;;;;;4936732;29;20471;-66
2022/05/24 07:21:33;;;;;;;4.33;1.57;;;12.30;99.90;;;;;;4933659;29;20583;-66
2022/05/24 07:24:04;;;;;;;1.20;1.17;;;12.30;99.90;;;;;;4935338;29;20997;-66
2022/05/24 07:26:34;;;;;;;2.73;1.80;;;12.30;99.90;;;;;;4936246;29;20501;-66
2022/05/24 07:29:23;;;;;;;2.00;1.87;;;12.20;99.90;;;;;;4941272;29;20824;-66
2022/05/24 07:31:54;;;;;;;3.00;1.70;;;12.20;99.90;;;;;;4939415;29;20843;-66
2022/05/24 07:34:25;;;;;;;1.73;1.60;;;12.10;99.90;;;;;;4944345;29;20477;-66
2022/05/24 07:36:57;;;;;;;1.70;1.60;;;12.10;99.90;;;;;;4940355;29;20710;-65
2022/05/24 07:39:28;;;;;;;3.30;1.63;;;12.10;99.90;;;;;;4941830;29;20478;-66
2022/05/24 07:47:44;;;;;;;1.30;1.20;;;11.80;99.90;;;;;;4936986;29;20501;-66
2022/05/24 07:50:15;;;;;;;1.70;1.60;;;11.90;99.90;;;;;;4941404;29;20994;-66
2022/05/24 07:52:47;;;;;;;1.97;1.50;;;11.90;99.90;;;;;;4941586;29;20787;-66
2022/05/24 07:55:18;;;;;;;2.10;1.90;;;11.90;99.90;;;;;;4935808;29;20549;-66
2022/05/24 07:57:50;;;;;;;2.20;1.33;;;11.90;99.90;;;;;;4943863;29;20466;-65
2022/05/24 08:00:21;;;;;;;1.90;1.80;;;11.80;99.90;;;;;;4943128;29;20841;-66
2022/05/24 08:02:53;;;;;;;1.70;1.60;;;11.80;99.90;;;;;;4940365;29;20465;-65
2022/05/24 08:05:24;;;;;;;1.80;1.70;;;11.80;99.90;;;;;;4942563;29;20466;-66
2022/05/24 08:07:57;;;;;;;2.20;2.00;;;11.80;99.90;;;;;;4930205;29;20500;-65
2022/05/24 08:10:28;;;;;;;1.77;1.67;;;11.70;99.90;;;;;;4938620;29;20457;-67
2022/05/24 08:12:59;;;;;;;1.83;1.73;;;11.70;99.90;;;;;;4942031;29;20475;-66
2022/05/24 08:15:31;;;;;;;2.10;1.67;;;11.60;99.90;;;;;;4945472;29;20468;-65
2022/05/24 08:18:01;;;;;;;1.93;1.73;;;11.60;99.90;;;;;;4945106;29;20503;-66
2022/05/24 08:20:33;;;;;;;2.10;2.00;;;11.60;99.90;;;;;;4947764;29;20474;-66
2022/05/24 08:23:06;;;;;;;1.90;1.80;;;11.50;99.90;;;;;;4948101;29;20476;-66
2022/05/24 08:25:40;;;;;;;2.03;1.90;;;11.50;99.90;;;;;;4931412;29;20450;-67
2022/05/24 08:28:11;;;;;;;1.90;1.80;;;11.50;99.90;;;;;;4939225;29;20507;-66
2022/05/24 08:30:42;;;;;;;2.00;1.90;;;11.50;99.90;;;;;;4946315;29;20474;-66
2022/05/24 08:33:15;;;;;;;1.87;1.77;;;11.50;99.90;;;;;;4942444;29;20471;-66
2022/05/24 08:35:47;;;;;;;2.40;2.20;;;11.40;99.90;;;;;;4942404;29;20522;-66
2022/05/24 08:38:19;;;;;;;1.97;1.80;;;11.40;99.90;;;;;;4942666;29;20465;-65
2022/05/24 08:40:51;;;;;;;2.70;2.13;;;11.40;99.90;;;;;;4934972;29;20910;-66
2022/05/24 08:43:47;;;;;;;2.43;1.83;;;11.30;99.90;;;;;;4938526;29;20466;-66
2022/05/24 08:49:11;;;;;;;2.93;2.73;;;11.30;99.90;;;;;;4935963;29;20454;-66
2022/05/24 08:51:46;;;;;;;2.77;2.27;;;11.20;99.90;;;;;;4936689;29;20474;-66
2022/05/24 08:54:21;;;;;;;2.50;2.30;;;11.20;99.90;;;;;;4934912;29;20465;-66
2022/05/24 08:56:56;;;;;;;2.27;2.10;;;11.20;99.90;;;;;;4934095;29;20525;-66
2022/05/24 08:59:30;;;;;;;3.00;2.60;;;11.10;99.90;;;;;;4944362;29;20533;-66
2022/05/24 09:02:01;;;;;;;3.03;2.47;;;11.00;99.90;;;;;;4942187;29;20832;-66
2022/05/24 09:04:33;;;;;;;2.20;2.00;;;11.00;99.90;;;;;;4946355;29;20480;-66
2022/05/24 09:07:08;;;;;;;2.30;2.10;;;10.90;99.90;;;;;;4936412;29;20496;-67
2022/05/24 09:09:54;;;;;;;3.03;2.17;;;11.00;99.90;;;;;;4937356;29;20477;-67
2022/05/24 09:12:46;;;;;;;2.33;2.13;;;11.00;99.90;;;;;;4941025;29;20531;-67
2022/05/24 09:15:26;;;;;;;2.90;2.60;;;10.90;99.90;;;;;;4940786;29;20544;-66
2022/05/24 09:18:14;;;;;;;2.17;1.97;;;10.90;99.90;;;;;;4946282;29;21550;-67
2022/05/24 09:20:46;;;;;;;3.00;2.30;;;10.90;99.90;;;;;;4943285;29;20457;-66
2022/05/24 09:23:22;;;;;;;2.60;2.40;;;10.80;99.90;;;;;;4944702;29;20478;-66
2022/05/24 09:25:59;;;;;;;2.33;1.70;;;10.80;99.90;;;;;;4942146;29;20457;-66
2022/05/24 09:28:50;;;;;;;2.50;2.07;;;10.70;99.90;;;;;;4946922;29;20513;-66
2022/05/24 09:31:30;;;;;;;2.57;2.37;;;10.60;99.90;;;;;;4934855;29;20927;-66
2022/05/24 09:34:04;;;;;;;2.30;2.10;;;10.60;99.90;;;;;;4944897;29;20924;-66
2022/05/24 09:36:39;;;;;;;3.00;2.60;;;10.60;99.90;;;;;;4937684;29;20474;-66
2022/05/24 09:39:25;;;;;;;2.50;2.30;;;10.60;99.90;;;;;;4938046;29;20474;-66
2022/05/24 09:42:02;;;;;;;2.50;2.30;;;10.50;99.90;;;;;;4939038;29;20454;-67
2022/05/24 09:44:47;;;;;;;2.37;2.17;;;10.50;99.90;;;;;;4940556;29;20469;-66
2022/05/24 09:47:24;;;;;;;2.47;2.27;;;10.40;99.90;;;;;;4939693;29;20496;-66
2022/05/24 09:49:56;;;;;;;2.50;2.30;;;10.40;99.90;;;;;;4943222;29;20478;-66
2022/05/24 09:52:27;;;;;;;2.20;2.10;;;10.40;99.90;;;;;;4933123;29;20478;-65
2022/05/24 09:55:00;;;;;;;5.63;2.57;;;10.30;99.90;;;;;;4933675;29;20473;-66
2022/05/24 09:57:33;;;;;;;3.10;2.50;;;10.30;99.90;;;;;;4943905;29;20469;-66
2022/05/24 10:00:12;;;;;;;2.70;2.50;;;10.40;99.90;;;;;;4944821;29;20461;-66
2022/05/24 10:02:43;;;;;;;3.93;3.10;;;10.40;99.90;;;;;;4944134;29;20206;-65
2022/05/24 10:05:22;;;;;;;2.42;2.30;;;10.30;99.90;;;;;;4932979;29;20503;-65
2022/05/24 10:07:59;;;;;;;3.33;2.57;;;10.30;99.90;;;;;;4936260;29;20226;-66
2022/05/24 10:10:32;;;;;;;3.63;2.60;;;10.20;99.90;;;;;;4942241;29;20479;-66
2022/05/24 10:13:15;;;;;;;2.83;2.38;;;10.20;99.90;;;;;;4940683;29;20490;-66
2022/05/24 10:16:00;;;;;;;2.83;2.50;;;10.10;99.90;;;;;;4932418;29;20206;-66
2022/05/24 10:18:51;;;;;;;2.70;2.03;;;10.10;99.90;;;;;;4940126;29;20465;-66
2022/05/24 10:21:27;;;;;;;2.70;2.50;;;10.10;99.90;;;;;;4946422;29;20458;-66
2022/05/24 10:24:13;;;;;;;2.45;2.25;;;10.10;99.90;;;;;;4942372;29;20209;-66
2022/05/24 10:27:00;;;;;;;3.03;2.83;;;10.00;99.90;;;;;;4936466;29;20210;-65
2022/05/24 10:29:49;;;;;;;2.80;2.60;;;10.00;99.90;;;;;;4942491;29;20233;-66
2022/05/24 10:38:33;;;;;;;2.28;2.13;;;9.80;99.90;;;;;;4938408;29;20301;-65
2022/05/24 10:41:10;;;;;;;2.60;2.40;;;9.80;99.90;;;;;;4941791;29;20213;-65
2022/05/24 10:43:58;;;;;;;2.90;2.60;;;9.80;99.90;;;;;;4944025;29;21000;-66
2022/05/24 10:46:37;;;;;;;3.28;2.40;;;9.80;99.90;;;;;;4941668;29;20210;-66
2022/05/24 10:49:19;;;;;;;4.28;2.55;;;9.80;99.90;;;;;;4937019;29;20237;-66
2022/05/24 10:51:53;;;;;;;3.00;2.80;;;9.80;99.90;;;;;;4944719;29;20206;-65
2022/05/24 10:54:34;;;;;;;3.95;2.85;;;9.70;99.90;;;;;;4943588;29;20660;-66
2022/05/24 10:57:11;;;;;;;3.37;3.07;;;9.70;99.90;;;;;;4940123;29;20213;-65
2022/05/24 10:59:52;;;;;;;4.72;2.70;;;9.80;99.90;;;;;;4942996;29;20461;-66
2022/05/24 11:02:34;;;;;;;3.70;3.40;;;9.80;99.90;;;;;;4942190;29;20212;-66
2022/05/24 11:05:12;;;;;;;3.10;2.80;;;9.80;99.90;;;;;;4944652;29;20268;-66
2022/05/24 11:07:43;;;;;;;2.50;2.30;;;9.80;99.90;;;;;;4943505;29;20471;-66
2022/05/24 11:10:24;;;;;;;2.92;2.70;;;9.90;99.90;;;;;;4935135;29;20469;-67
2022/05/24 11:12:58;;;;;;;3.17;2.88;;;9.90;99.90;;;;;;4939759;29;20206;-66
2022/05/24 11:15:35;;;;;;;3.25;2.72;;;9.90;99.90;;;;;;4938775;29;20225;-65
2022/05/24 11:18:17;;;;;;;3.23;2.17;;;10.00;99.90;;;;;;4940589;29;20217;-66
2022/05/24 11:20:54;;;;;;;2.73;2.50;;;10.20;99.90;;;;;;4940060;29;20474;-66
2022/05/24 11:23:29;;;;;;;3.13;2.92;;;10.20;99.90;;;;;;4943225;29;20470;-66
2022/05/24 11:26:06;;;;;;;2.50;2.30;;;10.20;99.90;;;;;;4941948;29;20197;-66
2022/05/24 11:28:46;;;;;;;3.03;2.80;;;10.30;99.90;;;;;;4944387;29;20497;-65
2022/05/24 11:31:38;;;;;;;2.70;2.50;;;10.30;99.90;;;;;;4936868;29;20470;-66
2022/05/24 11:34:21;;;;;;;3.00;2.80;;;10.50;99.90;;;;;;4943610;29;20473;-66
2022/05/24 11:37:05;;;;;;;2.73;2.53;;;10.60;99.90;;;;;;4933762;29;20474;-67
2022/05/24 11:39:39;;;;;;;3.20;2.80;;;10.60;99.90;;;;;;4931984;29;20550;-66
2022/05/24 11:42:47;;;;;;;2.10;2.00;;;10.60;99.90;;;;;;4944543;29;20476;-65
2022/05/24 11:45:57;;;;;;;2.87;2.60;;;10.70;99.90;;;;;;4925551;29;20549;-66
2022/05/24 11:48:50;;;;;;;2.83;2.63;;;10.70;99.90;;;;;;4933151;29;20506;-66
2022/05/24 11:51:46;;;;;;;2.63;2.43;;;10.70;99.90;;;;;;4932063;29;20471;-65
2022/05/24 11:54:57;;;;;;;2.63;2.43;;;10.70;99.90;;;;;;4931549;29;20461;-65
2022/05/24 11:57:39;;;;;;;3.43;2.57;;;10.70;99.90;;;;;;4935181;29;20474;-65
2022/05/24 12:00:14;;;;;;;3.37;3.07;;;10.90;99.90;;;;;;4943129;29;20485;-65
2022/05/24 12:08:41;;;;;;;5.47;2.90;;;10.90;99.90;;;;;;4932911;29;20491;-66
2022/05/24 12:11:18;;;;;;;3.10;2.80;;;11.10;99.90;;;;;;4932982;29;20492;-66
2022/05/24 12:14:16;;;;;;;4.17;3.00;;;11.10;99.90;;;;;;4939642;29;20478;-66
2022/05/24 12:17:05;;;;;;;3.30;3.00;;;11.10;99.90;;;;;;4930072;29;20494;-65
2022/05/24 12:19:52;;;;;;;2.70;2.50;;;11.20;99.90;;;;;;4937521;29;20557;-67
2022/05/24 12:22:32;;;;;;;3.20;3.00;;;11.20;99.90;;;;;;4934650;29;20472;-65
2022/05/24 12:25:06;;;;;;;3.57;2.40;;;11.20;99.90;;;;;;4936453;29;20465;-66
2022/05/24 12:27:50;;;;;;;2.90;2.70;;;11.30;99.90;;;;;;4939577;29;20480;-65
2022/05/24 12:30:47;;;;;;;3.03;2.43;;;11.30;99.90;;;;;;4939364;29;20533;-65
2022/05/24 12:33:37;;;;;;;2.97;2.77;;;11.30;99.90;;;;;;4942265;29;20483;-65
2022/05/24 12:36:24;;;;;;;2.57;2.37;;;11.40;99.90;;;;;;4930582;29;20651;-66
2022/05/24 12:39:17;;;;;;;4.60;2.40;;;11.40;99.90;;;;;;4938195;29;20457;-66
2022/05/24 12:41:52;;;;;;;2.70;2.43;;;11.40;99.90;;;;;;4935238;29;20462;-66
2022/05/24 12:44:30;;;;;;;3.17;2.63;;;11.50;99.90;;;;;;4943014;29;20477;-65
2022/05/24 12:47:14;;;;;;;3.07;2.77;;;11.50;99.90;;;;;;4933865;29;20973;-66
2022/05/24 12:49:56;;;;;;;3.33;2.40;;;11.50;99.90;;;;;;4943152;29;20576;-66
2022/05/24 12:52:28;;;;;;;4.70;2.87;;;11.60;99.90;;;;;;4938975;29;21314;-66
2022/05/24 12:55:02;;;;;;;3.20;2.87;;;11.50;99.90;;;;;;4936135;29;20470;-66
2022/05/24 12:57:39;;;;;;;3.10;2.57;;;11.60;99.90;;;;;;4942870;29;20474;-66
2022/05/24 13:00:14;;;;;;;2.90;2.67;;;11.60;99.90;;;;;;4941468;29;20964;-66
2022/05/24 13:02:46;;;;;;;2.77;2.57;;;11.60;99.90;;;;;;4944684;29;20464;-67
2022/05/24 13:05:23;;;;;;;4.87;3.20;;;11.60;99.90;;;;;;4944901;29;20474;-66
2022/05/24 13:07:59;;;;;;;2.93;2.63;;;11.70;99.90;;;;;;4942248;29;20460;-66
2022/05/24 13:10:31;;;;;;;3.20;2.83;;;11.70;99.90;;;;;;4945078;29;20497;-67
2022/05/24 13:13:06;;;;;;;3.07;2.73;;;11.80;99.90;;;;;;4943737;29;20465;-67
2022/05/24 13:15:41;;;;;;;3.50;3.20;;;11.80;99.90;;;;;;4937701;29;20507;-66
2022/05/24 13:18:14;;;;;;;4.50;3.20;;;11.90;99.90;;;;;;4942677;29;20447;-67
2022/05/24 13:20:47;;;;;;;3.00;2.77;;;11.90;99.90;;;;;;4930198;29;20554;-66
2022/05/24 13:23:25;;;;;;;3.13;2.80;;;12.00;99.90;;;;;;4939626;29;20480;-66
2022/05/24 13:25:57;;;;;;;3.00;2.70;;;12.00;99.90;;;;;;4946871;29;20473;-65
2022/05/24 13:28:45;;;;;;;2.80;2.60;;;12.00;99.90;;;;;;4947589;29;20458;-66
2022/05/24 13:34:15;;;;;;;3.10;2.90;;;12.10;99.90;;;;;;4944131;29;20494;-66
2022/05/24 13:36:48;;;;;;;3.37;3.07;;;12.20;99.90;;;;;;4932232;29;20472;-67
2022/05/24 13:39:22;;;;;;;4.23;3.07;;;12.20;99.90;;;;;;4932356;29;20447;-65
2022/05/24 13:41:59;;;;;;;3.63;3.33;;;12.20;99.90;;;;;;4935349;29;20821;-66
2022/05/24 13:45:10;;;;;;;5.73;3.53;;;12.20;99.90;;;;;;4928479;29;20450;-65
2022/05/24 13:47:42;;;;;;;3.60;3.30;;;12.30;99.90;;;;;;4943206;29;20552;-66
2022/05/24 13:50:24;;;;;;;4.13;3.60;;;12.20;99.90;;;;;;4937377;29;20505;-68
2022/05/24 13:53:00;;;;;;;6.17;3.77;;;12.30;99.90;;;;;;4932994;29;20466;-66
2022/05/24 13:55:33;;;;;;;4.27;3.87;;;12.40;99.90;;;;;;4933472;29;20461;-66
2022/05/24 13:58:08;;;;;;;3.30;3.00;;;12.60;99.90;;;;;;4937172;29;20462;-65
2022/05/24 14:00:45;;;;;;;4.50;4.03;;;12.60;99.90;;;;;;4941952;29;20546;-66
2022/05/24 14:03:25;;;;;;;3.83;3.10;;;12.80;99.90;;;;;;4945993;29;20782;-65
2022/05/24 14:06:10;;;;;;;4.93;3.37;;;12.80;99.90;;;;;;4940836;29;20455;-69
2022/05/24 14:08:49;;;;;;;3.63;3.33;;;12.90;99.90;;;;;;4932937;29;20497;-66
2022/05/24 14:11:23;;;;;;;4.53;3.60;;;12.90;99.90;;;;;;4927771;29;20577;-67
2022/05/24 14:13:54;;;;;;;4.30;3.43;;;12.90;99.90;;;;;;4928344;29;20972;-67